SBOSBO SAN / KSAN
Speedbird OnlineSpeedbird Online SAN / KSAN

San Diego International Airport
00:26 18.9°C

Location San Diego, United States
Latitude: 32.7336006165
Longitude: -117.190002441
Web Airport Website | Wikipedia
Altitude 5 Meter / 17 Feet
Distance 8,835 KM / 5,490 Miles
from London.
Time Zone UTC -7 hours (America/Los_Angeles)
Codes IATA: SAN
ICAO: KSAN
Currency £1 equals USD 1.13
Runways
RunwayLength (m)Surface
092865Partial
272865Partial
Radio
TypeDescriptionFrequency
A/DSOCAL APP/DEP119.6
ATISATIS134.8
CLDCLNC DEL125.9
GNDGND123.9
MISCCG157.15
MISCCG898.4
TWRLINDBERGH TWR118.3
UNICUNICOM122.95
Live ATC
METAR KSAN 060651Z 00000KT 8SM OVC008 19/17 A3003 RMK AO2 SLP167 T01890167
TAF KSAN 060520Z 0606/0712 19004KT 6SM BR OVC009 FM060900 VRB04KT 5SM BR OVC007 TEMPO 0612/0616 2SM BR OVC004 FM061800 24005KT P6SM BKN011 TEMPO 0620/0624 SCT014 FM070200 VRB04KT P6SM BKN010 FM070600 VRB04KT 6SM BR BKN008
Weather As Of 06 Oct 2022 00:26
Description Mist
Wind 6 km/h from South-West (210°)
Cloud Cover 100%
Precipitation Rain: none, Snow: none
Sunrise 06:46
Sunset 18:27
Lounges Aspire Lounge, Terminal 2
Rotations During the last 90 days there were
75 flights from LHR
76 flights to LHR
1 flights to LAX


© 2017-2022 Speedbird Online